RJTK(METAR)
06/25 08:00
METAR RJTK 242300Z 06006KT 9999 FEW020 SCT030 BKN045 20/18 Q1017 RMK
1CU020 4SC030 6SC045 A3005=
戻る
トップページへ戻る
IMOC Co,.Ltd.